sensor_id;sensor_type;location;lat;lon;timestamp;pressure;altitude;pressure_sealevel;temperature;humidity
55576;BME280;41437;45.478;9.116;2023-11-19T00:00:59;100378.00;;;7.14;100.00
55576;BME280;41437;45.478;9.116;2023-11-19T00:04:01;100372.44;;;7.39;100.00
55576;BME280;41437;45.478;9.116;2023-11-19T00:07:05;100385.75;;;7.17;100.00
55576;BME280;41437;45.478;9.116;2023-11-19T00:10:09;100380.53;;;7.34;100.00
55576;BME280;41437;45.478;9.116;2023-11-19T00:13:10;100390.50;;;7.03;100.00
55576;BME280;41437;45.478;9.116;2023-11-19T00:16:12;100386.81;;;6.91;100.00
55576;BME280;41437;45.478;9.116;2023-11-19T00:19:14;100383.47;;;7.14;100.00
55576;BME280;41437;45.478;9.116;2023-11-19T00:22:16;100371.44;;;7.15;100.00
55576;BME280;41437;45.478;9.116;2023-11-19T00:25:20;100373.59;;;6.88;100.00
55576;BME280;41437;45.478;9.116;2023-11-19T00:28:22;100358.06;;;7.00;100.00
55576;BME280;41437;45.478;9.116;2023-11-19T00:31:25;100361.56;;;6.89;100.00
55576;BME280;41437;45.478;9.116;2023-11-19T00:34:28;100365.75;;;6.92;100.00
55576;BME280;41437;45.478;9.116;2023-11-19T00:37:29;100359.44;;;6.91;100.00
55576;BME280;41437;45.478;9.116;2023-11-19T00:40:32;100359.66;;;6.65;100.00
55576;BME280;41437;45.478;9.116;2023-11-19T00:43:34;100365.41;;;6.25;100.00
55576;BME280;41437;45.478;9.116;2023-11-19T00:46:36;100347.66;;;6.02;100.00
55576;BME280;41437;45.478;9.116;2023-11-19T00:49:38;100355.44;;;6.06;100.00
55576;BME280;41437;45.478;9.116;2023-11-19T00:52:39;100347.75;;;6.21;100.00
55576;BME280;41437;45.478;9.116;2023-11-19T00:55:42;100344.25;;;6.39;100.00
55576;BME280;41437;45.478;9.116;2023-11-19T00:58:44;100346.00;;;6.26;100.00
55576;BME280;41437;45.478;9.116;2023-11-19T01:01:46;100344.22;;;6.45;100.00
55576;BME280;41437;45.478;9.116;2023-11-19T01:04:49;100351.56;;;6.76;100.00
55576;BME280;41437;45.478;9.116;2023-11-19T01:07:51;100344.13;;;6.59;100.00
55576;BME280;41437;45.478;9.116;2023-11-19T01:10:55;100356.41;;;6.49;100.00
55576;BME280;41437;45.478;9.116;2023-11-19T01:13:57;100357.34;;;6.62;100.00
55576;BME280;41437;45.478;9.116;2023-11-19T01:16:58;100357.19;;;6.82;100.00
55576;BME280;41437;45.478;9.116;2023-11-19T01:20:00;100354.53;;;6.43;100.00
55576;BME280;41437;45.478;9.116;2023-11-19T01:23:01;100350.84;;;6.63;100.00
55576;BME280;41437;45.478;9.116;2023-11-19T01:26:04;100350.09;;;6.49;100.00
55576;BME280;41437;45.478;9.116;2023-11-19T01:29:06;100346.06;;;6.20;100.00
55576;BME280;41437;45.478;9.116;2023-11-19T01:32:08;100347.81;;;6.14;100.00
55576;BME280;41437;45.478;9.116;2023-11-19T01:35:10;100346.22;;;6.32;100.00
55576;BME280;41437;45.478;9.116;2023-11-19T01:38:11;100337.59;;;6.28;100.00
55576;BME280;41437;45.478;9.116;2023-11-19T01:41:14;100332.03;;;6.41;100.00
55576;BME280;41437;45.478;9.116;2023-11-19T01:44:16;100332.78;;;6.55;100.00
55576;BME280;41437;45.478;9.116;2023-11-19T01:47:18;100327.16;;;6.43;100.00
55576;BME280;41437;45.478;9.116;2023-11-19T01:50:20;100322.94;;;6.47;100.00
55576;BME280;41437;45.478;9.116;2023-11-19T01:53:23;100319.19;;;6.42;100.00
55576;BME280;41437;45.478;9.116;2023-11-19T01:56:26;100321.47;;;6.13;100.00
55576;BME280;41437;45.478;9.116;2023-11-19T01:59:28;100318.09;;;5.73;100.00
55576;BME280;41437;45.478;9.116;2023-11-19T02:02:30;100307.88;;;5.55;100.00
55576;BME280;41437;45.478;9.116;2023-11-19T02:05:32;100311.19;;;5.64;100.00
55576;BME280;41437;45.478;9.116;2023-11-19T02:08:34;100309.59;;;5.94;100.00
55576;BME280;41437;45.478;9.116;2023-11-19T02:11:39;100320.59;;;5.74;100.00
55576;BME280;41437;45.478;9.116;2023-11-19T02:14:41;100316.44;;;5.65;100.00
55576;BME280;41437;45.478;9.116;2023-11-19T02:17:42;100304.94;;;5.50;100.00
55576;BME280;41437;45.478;9.116;2023-11-19T02:20:44;100289.50;;;5.75;100.00
55576;BME280;41437;45.478;9.116;2023-11-19T02:23:45;100293.00;;;5.44;100.00
55576;BME280;41437;45.478;9.116;2023-11-19T02:26:54;100298.47;;;5.38;100.00
55576;BME280;41437;45.478;9.116;2023-11-19T02:30:01;100287.19;;;5.27;100.00
55576;BME280;41437;45.478;9.116;2023-11-19T02:33:03;100282.72;;;5.33;100.00
55576;BME280;41437;45.478;9.116;2023-11-19T02:36:06;100275.59;;;5.32;100.00
55576;BME280;41437;45.478;9.116;2023-11-19T02:39:08;100264.25;;;5.22;100.00
55576;BME280;41437;45.478;9.116;2023-11-19T02:42:12;100276.91;;;5.61;100.00
55576;BME280;41437;45.478;9.116;2023-11-19T02:45:16;100285.22;;;5.86;100.00
55576;BME280;41437;45.478;9.116;2023-11-19T02:48:17;100278.25;;;5.97;100.00
55576;BME280;41437;45.478;9.116;2023-11-19T02:51:19;100283.06;;;6.01;100.00
55576;BME280;41437;45.478;9.116;2023-11-19T02:54:21;100279.50;;;6.01;100.00
55576;BME280;41437;45.478;9.116;2023-11-19T02:57:31;100264.22;;;5.80;100.00
55576;BME280;41437;45.478;9.116;2023-11-19T03:00:34;100265.63;;;5.58;100.00
55576;BME280;41437;45.478;9.116;2023-11-19T03:03:37;100271.69;;;5.60;100.00
55576;BME280;41437;45.478;9.116;2023-11-19T03:06:40;100271.78;;;5.78;100.00
55576;BME280;41437;45.478;9.116;2023-11-19T03:09:42;100277.00;;;5.86;100.00
55576;BME280;41437;45.478;9.116;2023-11-19T03:12:44;100272.31;;;5.62;100.00
55576;BME280;41437;45.478;9.116;2023-11-19T03:15:48;100260.81;;;5.53;100.00
55576;BME280;41437;45.478;9.116;2023-11-19T03:18:49;100261.69;;;5.40;100.00
55576;BME280;41437;45.478;9.116;2023-11-19T03:21:51;100255.13;;;5.48;100.00
55576;BME280;41437;45.478;9.116;2023-11-19T03:24:52;100259.63;;;5.29;100.00
55576;BME280;41437;45.478;9.116;2023-11-19T03:27:54;100256.34;;;5.00;100.00
55576;BME280;41437;45.478;9.116;2023-11-19T03:30:57;100251.41;;;5.36;100.00
55576;BME280;41437;45.478;9.116;2023-11-19T03:33:59;100249.34;;;5.24;100.00
55576;BME280;41437;45.478;9.116;2023-11-19T03:37:00;100249.31;;;5.31;100.00
55576;BME280;41437;45.478;9.116;2023-11-19T03:40:04;100254.66;;;5.06;100.00
55576;BME280;41437;45.478;9.116;2023-11-19T03:43:06;100257.38;;;5.13;100.00
55576;BME280;41437;45.478;9.116;2023-11-19T03:46:17;100250.13;;;5.45;100.00
55576;BME280;41437;45.478;9.116;2023-11-19T03:49:19;100233.06;;;5.43;100.00
55576;BME280;41437;45.478;9.116;2023-11-19T03:52:20;100242.50;;;5.53;100.00
55576;BME280;41437;45.478;9.116;2023-11-19T03:55:22;100243.22;;;5.29;100.00
55576;BME280;41437;45.478;9.116;2023-11-19T03:58:24;100239.47;;;5.23;100.00
55576;BME280;41437;45.478;9.116;2023-11-19T04:01:27;100240.16;;;5.12;100.00
55576;BME280;41437;45.478;9.116;2023-11-19T04:04:28;100243.34;;;5.02;100.00
55576;BME280;41437;45.478;9.116;2023-11-19T04:07:30;100234.47;;;5.14;100.00
55576;BME280;41437;45.478;9.116;2023-11-19T04:10:32;100231.72;;;5.20;100.00
55576;BME280;41437;45.478;9.116;2023-11-19T04:13:34;100210.56;;;5.02;100.00
55576;BME280;41437;45.478;9.116;2023-11-19T04:16:37;100238.09;;;4.94;100.00
55576;BME280;41437;45.478;9.116;2023-11-19T04:19:38;100236.47;;;4.80;100.00
55576;BME280;41437;45.478;9.116;2023-11-19T04:22:42;100211.25;;;4.78;100.00
55576;BME280;41437;45.478;9.116;2023-11-19T04:25:43;100226.56;;;4.92;100.00
55576;BME280;41437;45.478;9.116;2023-11-19T04:28:45;100208.13;;;4.61;100.00
55576;BME280;41437;45.478;9.116;2023-11-19T04:31:48;100201.63;;;4.69;100.00
55576;BME280;41437;45.478;9.116;2023-11-19T04:34:49;100201.22;;;4.72;100.00
55576;BME280;41437;45.478;9.116;2023-11-19T04:37:51;100187.56;;;4.72;100.00
55576;BME280;41437;45.478;9.116;2023-11-19T04:40:53;100197.84;;;4.70;100.00
55576;BME280;41437;45.478;9.116;2023-11-19T04:43:54;100211.03;;;4.93;100.00
55576;BME280;41437;45.478;9.116;2023-11-19T04:46:57;100209.91;;;5.07;100.00
55576;BME280;41437;45.478;9.116;2023-11-19T04:49:59;100217.63;;;5.17;100.00
55576;BME280;41437;45.478;9.116;2023-11-19T04:53:01;100201.53;;;4.95;100.00
55576;BME280;41437;45.478;9.116;2023-11-19T04:56:07;100197.00;;;4.76;100.00
55576;BME280;41437;45.478;9.116;2023-11-19T04:59:09;100207.03;;;4.82;100.00
55576;BME280;41437;45.478;9.116;2023-11-19T05:02:12;100175.41;;;4.54;100.00
55576;BME280;41437;45.478;9.116;2023-11-19T05:05:16;100183.56;;;4.68;100.00
55576;BME280;41437;45.478;9.116;2023-11-19T05:08:18;100188.19;;;4.61;100.00
55576;BME280;41437;45.478;9.116;2023-11-19T05:11:20;100183.31;;;4.89;100.00
55576;BME280;41437;45.478;9.116;2023-11-19T05:14:21;100179.38;;;4.72;100.00
55576;BME280;41437;45.478;9.116;2023-11-19T05:17:26;100191.13;;;4.72;100.00
55576;BME280;41437;45.478;9.116;2023-11-19T05:20:27;100177.75;;;4.44;100.00
55576;BME280;41437;45.478;9.116;2023-11-19T05:23:29;100173.97;;;4.45;100.00
55576;BME280;41437;45.478;9.116;2023-11-19T05:26:31;100165.59;;;4.40;100.00
55576;BME280;41437;45.478;9.116;2023-11-19T05:29:32;100166.63;;;4.39;100.00
55576;BME280;41437;45.478;9.116;2023-11-19T05:32:35;100168.97;;;4.36;100.00
55576;BME280;41437;45.478;9.116;2023-11-19T05:35:37;100176.50;;;4.40;100.00
55576;BME280;41437;45.478;9.116;2023-11-19T05:38:39;100169.78;;;4.49;100.00
55576;BME280;41437;45.478;9.116;2023-11-19T05:41:40;100170.56;;;4.57;100.00
55576;BME280;41437;45.478;9.116;2023-11-19T05:44:42;100151.34;;;4.12;100.00
55576;BME280;41437;45.478;9.116;2023-11-19T05:47:45;100151.09;;;4.53;100.00
55576;BME280;41437;45.478;9.116;2023-11-19T05:50:46;100150.78;;;4.81;100.00
55576;BME280;41437;45.478;9.116;2023-11-19T05:53:49;100144.44;;;4.94;100.00
55576;BME280;41437;45.478;9.116;2023-11-19T05:56:51;100163.31;;;4.95;100.00
55576;BME280;41437;45.478;9.116;2023-11-19T05:59:54;100137.13;;;4.88;100.00
55576;BME280;41437;45.478;9.116;2023-11-19T06:02:57;100152.66;;;4.81;100.00
55576;BME280;41437;45.478;9.116;2023-11-19T06:05:59;100138.25;;;4.67;100.00
55576;BME280;41437;45.478;9.116;2023-11-19T06:09:00;100145.13;;;4.76;100.00
55576;BME280;41437;45.478;9.116;2023-11-19T06:12:06;100139.13;;;4.47;100.00
55576;BME280;41437;45.478;9.116;2023-11-19T06:15:08;100148.69;;;4.70;100.00
55576;BME280;41437;45.478;9.116;2023-11-19T06:18:12;100142.63;;;4.68;100.00
55576;BME280;41437;45.478;9.116;2023-11-19T06:21:14;100125.09;;;4.37;100.00
55576;BME280;41437;45.478;9.116;2023-11-19T06:24:16;100131.81;;;4.41;100.00
55576;BME280;41437;45.478;9.116;2023-11-19T06:27:18;100147.09;;;4.49;100.00
55576;BME280;41437;45.478;9.116;2023-11-19T06:30:20;100139.34;;;4.46;100.00
55576;BME280;41437;45.478;9.116;2023-11-19T06:33:23;100132.41;;;4.50;100.00
55576;BME280;41437;45.478;9.116;2023-11-19T06:36:25;100129.25;;;4.53;100.00
55576;BME280;41437;45.478;9.116;2023-11-19T06:39:26;100142.25;;;4.58;100.00
55576;BME280;41437;45.478;9.116;2023-11-19T06:42:28;100160.50;;;4.64;100.00
55576;BME280;41437;45.478;9.116;2023-11-19T06:45:30;100148.41;;;4.20;100.00
55576;BME280;41437;45.478;9.116;2023-11-19T06:48:33;100158.50;;;4.06;100.00
55576;BME280;41437;45.478;9.116;2023-11-19T06:51:34;100166.88;;;4.24;100.00
55576;BME280;41437;45.478;9.116;2023-11-19T06:54:37;100135.81;;;4.32;100.00
55576;BME280;41437;45.478;9.116;2023-11-19T06:57:39;100154.22;;;4.43;100.00
55576;BME280;41437;45.478;9.116;2023-11-19T07:00:41;100147.53;;;4.39;100.00
55576;BME280;41437;45.478;9.116;2023-11-19T07:03:44;100138.69;;;4.57;100.00
55576;BME280;41437;45.478;9.116;2023-11-19T07:06:46;100152.78;;;4.34;100.00
55576;BME280;41437;45.478;9.116;2023-11-19T07:09:48;100142.09;;;4.97;100.00
55576;BME280;41437;45.478;9.116;2023-11-19T07:12:50;100151.28;;;4.51;100.00
55576;BME280;41437;45.478;9.116;2023-11-19T07:15:52;100143.78;;;4.98;100.00
55576;BME280;41437;45.478;9.116;2023-11-19T07:18:55;100161.53;;;5.21;100.00
55576;BME280;41437;45.478;9.116;2023-11-19T07:21:56;100177.00;;;4.89;100.00
55576;BME280;41437;45.478;9.116;2023-11-19T07:24:58;100150.81;;;4.61;100.00
55576;BME280;41437;45.478;9.116;2023-11-19T07:27:59;100158.31;;;4.92;100.00
55576;BME280;41437;45.478;9.116;2023-11-19T07:31:01;100152.91;;;4.79;100.00
55576;BME280;41437;45.478;9.116;2023-11-19T07:34:04;100177.00;;;4.89;100.00
55576;BME280;41437;45.478;9.116;2023-11-19T07:37:06;100174.38;;;4.62;100.00
55576;BME280;41437;45.478;9.116;2023-11-19T07:40:09;100144.16;;;4.57;100.00
55576;BME280;41437;45.478;9.116;2023-11-19T07:43:12;100165.56;;;5.12;100.00
55576;BME280;41437;45.478;9.116;2023-11-19T07:46:13;100168.72;;;5.09;100.00
55576;BME280;41437;45.478;9.116;2023-11-19T07:49:17;100165.91;;;5.60;100.00
55576;BME280;41437;45.478;9.116;2023-11-19T07:52:19;100146.38;;;5.57;100.00
55576;BME280;41437;45.478;9.116;2023-11-19T07:55:21;100169.06;;;5.95;100.00
55576;BME280;41437;45.478;9.116;2023-11-19T07:58:23;100153.88;;;5.99;100.00
55576;BME280;41437;45.478;9.116;2023-11-19T08:01:24;100158.16;;;6.14;100.00
55576;BME280;41437;45.478;9.116;2023-11-19T08:04:27;100134.47;;;6.26;100.00
55576;BME280;41437;45.478;9.116;2023-11-19T08:07:29;100157.34;;;6.75;100.00
55576;BME280;41437;45.478;9.116;2023-11-19T08:10:31;100157.19;;;6.88;100.00
55576;BME280;41437;45.478;9.116;2023-11-19T08:13:33;100152.91;;;7.11;100.00
55576;BME280;41437;45.478;9.116;2023-11-19T08:16:35;100144.84;;;6.97;100.00
55576;BME280;41437;45.478;9.116;2023-11-19T08:19:39;100156.56;;;7.04;100.00
55576;BME280;41437;45.478;9.116;2023-11-19T08:22:41;100166.34;;;7.30;100.00
55576;BME280;41437;45.478;9.116;2023-11-19T08:25:42;100155.00;;;7.57;100.00
55576;BME280;41437;45.478;9.116;2023-11-19T08:28:44;100183.59;;;7.79;100.00
55576;BME280;41437;45.478;9.116;2023-11-19T08:31:46;100175.03;;;7.99;100.00
55576;BME280;41437;45.478;9.116;2023-11-19T08:34:49;100183.66;;;8.26;100.00
55576;BME280;41437;45.478;9.116;2023-11-19T08:37:50;100176.66;;;8.54;100.00
55576;BME280;41437;45.478;9.116;2023-11-19T08:40:53;100172.09;;;8.48;100.00
55576;BME280;41437;45.478;9.116;2023-11-19T08:43:59;100170.44;;;8.59;100.00
55576;BME280;41437;45.478;9.116;2023-11-19T08:47:01;100185.09;;;8.88;100.00
55576;BME280;41437;45.478;9.116;2023-11-19T08:50:05;100195.59;;;9.02;100.00
55576;BME280;41437;45.478;9.116;2023-11-19T08:53:07;100184.38;;;8.92;100.00
55576;BME280;41437;45.478;9.116;2023-11-19T08:56:08;100180.31;;;8.95;100.00
55576;BME280;41437;45.478;9.116;2023-11-19T08:59:10;100175.47;;;9.14;100.00
55576;BME280;41437;45.478;9.116;2023-11-19T09:02:12;100182.03;;;9.24;100.00
55576;BME280;41437;45.478;9.116;2023-11-19T09:05:15;100194.28;;;9.45;100.00
55576;BME280;41437;45.478;9.116;2023-11-19T09:08:16;100185.81;;;9.64;100.00
55576;BME280;41437;45.478;9.116;2023-11-19T09:11:18;100178.03;;;9.89;100.00
55576;BME280;41437;45.478;9.116;2023-11-19T09:14:20;100182.41;;;10.02;96.97
55576;BME280;41437;45.478;9.116;2023-11-19T09:17:24;100191.66;;;10.13;84.19
55576;BME280;41437;45.478;9.116;2023-11-19T09:20:27;100176.78;;;10.14;97.43
55576;BME280;41437;45.478;9.116;2023-11-19T09:23:32;100192.56;;;10.18;99.32
55576;BME280;41437;45.478;9.116;2023-11-19T09:26:39;100181.88;;;10.22;100.00
55576;BME280;41437;45.478;9.116;2023-11-19T09:29:41;100191.78;;;10.35;100.00
55576;BME280;41437;45.478;9.116;2023-11-19T09:32:46;100187.56;;;10.49;96.86
55576;BME280;41437;45.478;9.116;2023-11-19T09:35:49;100189.16;;;10.62;91.27
55576;BME280;41437;45.478;9.116;2023-11-19T09:38:51;100192.50;;;11.02;85.95
55576;BME280;41437;45.478;9.116;2023-11-19T09:41:52;100197.81;;;11.09;76.94
55576;BME280;41437;45.478;9.116;2023-11-19T09:44:56;100182.19;;;11.15;78.75
55576;BME280;41437;45.478;9.116;2023-11-19T09:48:00;100172.06;;;11.20;75.29
55576;BME280;41437;45.478;9.116;2023-11-19T09:51:04;100179.03;;;11.28;71.52
55576;BME280;41437;45.478;9.116;2023-11-19T09:54:06;100154.84;;;11.13;68.85
55576;BME280;41437;45.478;9.116;2023-11-19T09:57:07;100169.84;;;11.22;63.88
55576;BME280;41437;45.478;9.116;2023-11-19T10:00:13;100185.84;;;10.98;65.25
55576;BME280;41437;45.478;9.116;2023-11-19T10:03:17;100173.44;;;11.23;66.05
55576;BME280;41437;45.478;9.116;2023-11-19T10:06:20;100174.75;;;11.37;68.36
55576;BME280;41437;45.478;9.116;2023-11-19T10:09:22;100169.59;;;11.46;71.24
55576;BME280;41437;45.478;9.116;2023-11-19T10:12:24;100149.38;;;11.40;75.35
55576;BME280;41437;45.478;9.116;2023-11-19T10:15:26;100157.41;;;11.69;72.76
55576;BME280;41437;45.478;9.116;2023-11-19T10:18:28;100139.69;;;11.87;69.08
55576;BME280;41437;45.478;9.116;2023-11-19T10:21:33;100141.03;;;11.84;70.71
55576;BME280;41437;45.478;9.116;2023-11-19T10:24:35;100137.25;;;11.95;66.37
55576;BME280;41437;45.478;9.116;2023-11-19T10:27:38;100144.31;;;12.13;65.22
55576;BME280;41437;45.478;9.116;2023-11-19T10:30:41;100153.75;;;12.17;64.99
55576;BME280;41437;45.478;9.116;2023-11-19T10:33:43;100148.84;;;12.24;62.68
55576;BME280;41437;45.478;9.116;2023-11-19T10:36:46;100144.56;;;12.06;63.23
55576;BME280;41437;45.478;9.116;2023-11-19T10:39:51;100143.44;;;12.07;64.67
55576;BME280;41437;45.478;9.116;2023-11-19T10:43:02;100134.66;;;12.11;66.62
55576;BME280;41437;45.478;9.116;2023-11-19T10:46:09;100129.34;;;12.04;76.29
55576;BME280;41437;45.478;9.116;2023-11-19T10:49:12;100119.13;;;12.04;79.21
55576;BME280;41437;45.478;9.116;2023-11-19T10:52:17;100127.09;;;11.74;85.95
55576;BME280;41437;45.478;9.116;2023-11-19T10:55:21;100102.25;;;11.74;88.83
55576;BME280;41437;45.478;9.116;2023-11-19T10:58:28;100117.13;;;11.68;89.57
55576;BME280;41437;45.478;9.116;2023-11-19T11:01:34;100104.06;;;11.58;91.23
55576;BME280;41437;45.478;9.116;2023-11-19T11:04:39;100087.06;;;11.44;93.56
55576;BME280;41437;45.478;9.116;2023-11-19T11:07:44;100109.50;;;11.53;95.22
55576;BME280;41437;45.478;9.116;2023-11-19T11:10:52;100098.91;;;11.67;97.35
55576;BME280;41437;45.478;9.116;2023-11-19T11:13:54;100099.28;;;11.53;96.35
55576;BME280;41437;45.478;9.116;2023-11-19T11:16:59;100099.94;;;11.61;97.12
55576;BME280;41437;45.478;9.116;2023-11-19T11:20:01;100086.59;;;11.52;97.82
55576;BME280;41437;45.478;9.116;2023-11-19T11:23:22;100091.00;;;11.80;94.61
55576;BME280;41437;45.478;9.116;2023-11-19T11:26:44;100092.31;;;11.73;95.28
55576;BME280;41437;45.478;9.116;2023-11-19T11:29:59;100078.34;;;11.57;96.08
55576;BME280;41437;45.478;9.116;2023-11-19T11:33:14;100086.91;;;11.56;97.52
55576;BME280;41437;45.478;9.116;2023-11-19T11:36:20;100082.69;;;11.48;95.83
55576;BME280;41437;45.478;9.116;2023-11-19T11:39:24;100081.78;;;11.70;94.61
55576;BME280;41437;45.478;9.116;2023-11-19T11:42:34;100068.03;;;11.75;91.90
55576;BME280;41437;45.478;9.116;2023-11-19T11:45:37;100051.22;;;11.76;93.72
55576;BME280;41437;45.478;9.116;2023-11-19T11:48:45;100057.13;;;11.85;90.93
55576;BME280;41437;45.478;9.116;2023-11-19T11:51:58;100048.28;;;11.88;89.05
55576;BME280;41437;45.478;9.116;2023-11-19T11:55:04;100055.84;;;11.98;87.50
55576;BME280;41437;45.478;9.116;2023-11-19T11:58:08;100049.84;;;12.11;85.02
55576;BME280;41437;45.478;9.116;2023-11-19T12:01:14;100044.63;;;12.15;86.92
55576;BME280;41437;45.478;9.116;2023-11-19T12:04:20;100051.44;;;12.49;83.93
55576;BME280;41437;45.478;9.116;2023-11-19T12:07:23;100031.56;;;12.52;79.16
55576;BME280;41437;45.478;9.116;2023-11-19T12:10:29;100037.38;;;12.51;80.76
55576;BME280;41437;45.478;9.116;2023-11-19T12:13:56;100026.06;;;12.57;78.87
55576;BME280;41437;45.478;9.116;2023-11-19T12:17:03;100036.63;;;12.71;78.56
55576;BME280;41437;45.478;9.116;2023-11-19T12:20:06;100033.84;;;12.66;76.30
55576;BME280;41437;45.478;9.116;2023-11-19T12:23:09;100024.03;;;12.32;76.52
55576;BME280;41437;45.478;9.116;2023-11-19T12:26:31;100024.47;;;12.72;77.08
55576;BME280;41437;45.478;9.116;2023-11-19T12:29:41;100028.38;;;12.76;75.58
55576;BME280;41437;45.478;9.116;2023-11-19T12:32:45;100013.44;;;12.82;78.19
55576;BME280;41437;45.478;9.116;2023-11-19T12:35:48;100019.41;;;12.53;77.28
55576;BME280;41437;45.478;9.116;2023-11-19T12:38:49;100014.69;;;12.49;77.01
55576;BME280;41437;45.478;9.116;2023-11-19T12:41:53;100010.28;;;12.53;78.66
55576;BME280;41437;45.478;9.116;2023-11-19T12:44:55;99999.03;;;12.70;76.73
55576;BME280;41437;45.478;9.116;2023-11-19T12:48:04;100000.41;;;12.72;79.30
55576;BME280;41437;45.478;9.116;2023-11-19T12:51:06;100007.94;;;12.87;77.26
55576;BME280;41437;45.478;9.116;2023-11-19T12:54:08;100000.75;;;12.86;79.78
55576;BME280;41437;45.478;9.116;2023-11-19T12:57:12;99996.38;;;13.16;75.28
55576;BME280;41437;45.478;9.116;2023-11-19T13:00:18;99993.94;;;13.40;73.92
55576;BME280;41437;45.478;9.116;2023-11-19T13:03:29;99990.63;;;13.43;74.66
55576;BME280;41437;45.478;9.116;2023-11-19T13:06:31;99985.94;;;13.28;72.94
55576;BME280;41437;45.478;9.116;2023-11-19T13:09:33;99971.75;;;13.14;75.98
55576;BME280;41437;45.478;9.116;2023-11-19T13:12:36;99979.81;;;13.31;76.89
55576;BME280;41437;45.478;9.116;2023-11-19T13:15:37;99964.06;;;13.42;74.70
55576;BME280;41437;45.478;9.116;2023-11-19T13:18:40;99970.91;;;13.14;73.85
55576;BME280;41437;45.478;9.116;2023-11-19T13:21:42;99958.19;;;12.97;78.19
55576;BME280;41437;45.478;9.116;2023-11-19T13:24:46;99970.16;;;13.39;77.26
55576;BME280;41437;45.478;9.116;2023-11-19T13:27:49;99964.63;;;13.59;75.31
55576;BME280;41437;45.478;9.116;2023-11-19T13:30:50;99960.44;;;13.36;77.20
55576;BME280;41437;45.478;9.116;2023-11-19T13:33:53;99952.69;;;13.48;74.74
55576;BME280;41437;45.478;9.116;2023-11-19T13:36:55;99954.34;;;13.49;71.62
55576;BME280;41437;45.478;9.116;2023-11-19T13:39:57;99956.31;;;13.59;74.34
55576;BME280;41437;45.478;9.116;2023-11-19T13:43:00;99958.25;;;13.48;72.12
55576;BME280;41437;45.478;9.116;2023-11-19T13:46:01;99958.25;;;13.58;73.54
55576;BME280;41437;45.478;9.116;2023-11-19T13:49:03;99949.94;;;13.43;74.92
55576;BME280;41437;45.478;9.116;2023-11-19T13:52:05;99951.31;;;13.56;73.09
55576;BME280;41437;45.478;9.116;2023-11-19T13:55:08;99945.50;;;13.52;74.46
55576;BME280;41437;45.478;9.116;2023-11-19T13:58:12;99948.56;;;13.46;73.30
55576;BME280;41437;45.478;9.116;2023-11-19T14:01:13;99948.84;;;13.34;74.34
55576;BME280;41437;45.478;9.116;2023-11-19T14:04:15;99943.31;;;13.24;75.44
55576;BME280;41437;45.478;9.116;2023-11-19T14:07:16;99936.38;;;13.42;72.99
55576;BME280;41437;45.478;9.116;2023-11-19T14:10:18;99937.75;;;13.49;73.68
55576;BME280;41437;45.478;9.116;2023-11-19T14:13:22;99936.66;;;13.55;73.09
55576;BME280;41437;45.478;9.116;2023-11-19T14:16:26;99925.31;;;13.42;74.49
55576;BME280;41437;45.478;9.116;2023-11-19T14:19:27;99914.81;;;13.33;74.94
55576;BME280;41437;45.478;9.116;2023-11-19T14:22:31;99915.03;;;13.17;75.39
55576;BME280;41437;45.478;9.116;2023-11-19T14:25:35;99918.94;;;13.11;75.39
55576;BME280;41437;45.478;9.116;2023-11-19T14:28:38;99918.66;;;13.07;76.02
55576;BME280;41437;45.478;9.116;2023-11-19T14:31:39;99913.66;;;13.09;75.71
55576;BME280;41437;45.478;9.116;2023-11-19T14:34:41;99920.06;;;13.30;74.56
55576;BME280;41437;45.478;9.116;2023-11-19T14:37:44;99945.75;;;13.20;75.88
55576;BME280;41437;45.478;9.116;2023-11-19T14:40:46;99950.44;;;13.09;76.01
55576;BME280;41437;45.478;9.116;2023-11-19T14:43:49;99936.06;;;13.18;75.85
55576;BME280;41437;45.478;9.116;2023-11-19T14:46:51;99930.53;;;13.18;76.20
55576;BME280;41437;45.478;9.116;2023-11-19T14:49:52;99912.53;;;13.00;77.79
55576;BME280;41437;45.478;9.116;2023-11-19T14:52:54;99915.84;;;12.92;76.15
55576;BME280;41437;45.478;9.116;2023-11-19T14:55:56;99918.66;;;13.02;77.24
55576;BME280;41437;45.478;9.116;2023-11-19T14:58:59;99918.91;;;13.00;77.07
55576;BME280;41437;45.478;9.116;2023-11-19T15:02:00;99929.13;;;13.10;74.58
55576;BME280;41437;45.478;9.116;2023-11-19T15:05:03;99930.81;;;13.11;74.42
55576;BME280;41437;45.478;9.116;2023-11-19T15:08:04;99932.19;;;13.03;76.45
55576;BME280;41437;45.478;9.116;2023-11-19T15:11:06;99927.72;;;12.92;77.47
55576;BME280;41437;45.478;9.116;2023-11-19T15:14:10;99933.50;;;12.75;77.97
55576;BME280;41437;45.478;9.116;2023-11-19T15:17:15;99934.91;;;12.73;73.46
55576;BME280;41437;45.478;9.116;2023-11-19T15:20:16;99934.88;;;12.63;75.61
55576;BME280;41437;45.478;9.116;2023-11-19T15:23:18;99929.00;;;12.44;78.00
55576;BME280;41437;45.478;9.116;2023-11-19T15:26:20;99933.38;;;12.35;83.55
55576;BME280;41437;45.478;9.116;2023-11-19T15:29:23;99930.59;;;12.19;86.24
55576;BME280;41437;45.478;9.116;2023-11-19T15:32:25;99932.94;;;12.00;92.49
55576;BME280;41437;45.478;9.116;2023-11-19T15:35:26;99936.28;;;11.97;91.41
55576;BME280;41437;45.478;9.116;2023-11-19T15:38:28;99927.09;;;11.87;87.67
55576;BME280;41437;45.478;9.116;2023-11-19T15:41:30;99930.81;;;11.70;88.41
55576;BME280;41437;45.478;9.116;2023-11-19T15:44:33;99925.00;;;11.29;95.48
55576;BME280;41437;45.478;9.116;2023-11-19T15:47:35;99922.97;;;11.15;100.00
55576;BME280;41437;45.478;9.116;2023-11-19T15:50:36;99931.81;;;11.22;100.00
55576;BME280;41437;45.478;9.116;2023-11-19T15:53:38;99931.75;;;11.12;100.00
55576;BME280;41437;45.478;9.116;2023-11-19T15:56:40;99941.19;;;11.21;100.00
55576;BME280;41437;45.478;9.116;2023-11-19T15:59:42;99940.41;;;10.93;100.00